Time;durP1;ratioP1;P1;durP2;ratioP2;P2;SDS_P1;SDS_P2;PMS_P1;PMS_P2;Temp;Humidity;BMP_temperature;BMP_pressure;BME280_temperature;BME280_humidity;BME280_pressure;Samples;Min_cycle;Max_cycle;Signal;HPM_P1;HPM_P2
2021/12/20 00:00:19;;;;;;;43.30;24.92;;;;;;;17.63;51.80;102989.44;5007709;28;20083;-58
2021/12/20 00:02:52;;;;;;;44.27;26.43;;;;;;;17.64;51.14;102988.47;5007959;28;20041;-58
2021/12/20 00:05:20;;;;;;;43.17;24.80;;;;;;;17.63;51.32;102992.09;5007423;28;20054;-58
2021/12/20 00:07:48;;;;;;;43.40;24.33;;;;;;;17.64;51.13;102982.25;5006693;28;20049;-58
2021/12/20 00:10:15;;;;;;;37.85;21.50;;;;;;;17.62;51.29;102974.31;5010971;28;20049;-58
2021/12/20 00:12:42;;;;;;;38.88;23.55;;;;;;;17.60;51.21;102992.31;5005794;28;20068;-58
2021/12/20 00:15:09;;;;;;;42.50;23.63;;;;;;;17.61;51.22;102985.13;5005752;28;20485;-58
2021/12/20 00:17:36;;;;;;;40.10;22.95;;;;;;;17.59;50.83;102974.50;5008609;28;20373;-59
2021/12/20 00:20:04;;;;;;;39.83;22.25;;;;;;;17.58;51.21;102978.16;5007853;28;20052;-58
2021/12/20 00:22:31;;;;;;;41.78;23.25;;;;;;;17.59;51.57;102977.19;5006567;28;20049;-59
2021/12/20 00:24:57;;;;;;;38.15;22.35;;;;;;;17.59;51.11;102973.63;5008990;28;20053;-58
2021/12/20 00:27:24;;;;;;;38.58;21.38;;;;;;;17.57;51.42;102976.44;5006718;28;20046;-58
2021/12/20 00:29:50;;;;;;;36.35;20.83;;;;;;;17.56;51.35;102963.97;5006738;28;20052;-58
2021/12/20 00:32:18;;;;;;;33.88;20.05;;;;;;;17.56;51.59;102966.63;5008905;28;20140;-58
2021/12/20 00:34:45;;;;;;;32.60;19.58;;;;;;;17.55;51.59;102964.94;5005605;28;20041;-58
2021/12/20 00:42:45;;;;;;;37.05;18.67;;;;;;;17.52;51.51;102965.13;5006737;28;20626;-58
2021/12/20 00:45:12;;;;;;;33.35;19.38;;;;;;;17.50;51.29;102959.88;5007960;28;20136;-58
2021/12/20 00:47:40;;;;;;;33.50;18.48;;;;;;;17.51;50.98;102963.41;5007107;28;20054;-58
2021/12/20 00:50:08;;;;;;;30.90;18.52;;;;;;;17.50;51.40;102962.53;5004159;28;20097;-58
2021/12/20 00:52:35;;;;;;;32.33;17.77;;;;;;;17.49;51.24;102957.28;5009842;28;20042;-58
2021/12/20 00:55:02;;;;;;;28.88;16.77;;;;;;;17.49;51.36;102957.28;5007212;28;20066;-58
2021/12/20 00:57:29;;;;;;;34.78;18.55;;;;;;;17.48;51.23;102951.03;5003975;28;20050;-58
2021/12/20 00:59:56;;;;;;;36.10;18.88;;;;;;;17.47;51.22;102954.69;5007440;28;20076;-58
2021/12/20 01:02:22;;;;;;;31.40;17.30;;;;;;;17.47;51.41;102961.88;5005728;28;20049;-58
2021/12/20 01:04:49;;;;;;;28.30;17.33;;;;;;;17.46;51.16;102957.47;5007033;28;20058;-58
2021/12/20 01:07:16;;;;;;;28.88;16.92;;;;;;;17.46;51.55;102952.13;5005282;28;20057;-58
2021/12/20 01:09:42;;;;;;;28.27;16.02;;;;;;;17.45;51.70;102953.09;5005328;28;20137;-58
2021/12/20 01:12:16;;;;;;;33.20;16.83;;;;;;;17.46;51.23;102957.47;5002731;28;20059;-58
2021/12/20 01:14:43;;;;;;;;;;;;;;;17.44;51.47;102954.88;5008293;28;20050;-59
2021/12/20 01:17:10;;;;;;;27.77;15.65;;;;;;;17.46;50.75;102958.34;5009799;28;19927;-58
2021/12/20 01:19:38;;;;;;;28.70;15.88;;;;;;;17.44;51.36;102960.25;5004457;28;20056;-58
2021/12/20 01:22:05;;;;;;;28.17;15.90;;;;;;;17.43;51.66;102955.00;5005268;28;20058;-58
2021/12/20 01:24:33;;;;;;;27.63;14.40;;;;;;;17.43;51.22;102957.66;5006264;28;20052;-58
2021/12/20 01:26:59;;;;;;;25.67;14.55;;;;;;;17.41;51.52;102957.78;5004721;28;20049;-58
2021/12/20 01:29:26;;;;;;;25.35;14.32;;;;;;;17.41;51.08;102957.78;5004349;28;20064;-58
2021/12/20 01:31:52;;;;;;;23.58;13.95;;;;;;;17.40;50.89;102957.84;5005334;28;20079;-58
2021/12/20 01:34:19;;;;;;;28.42;14.77;;;;;;;17.41;51.20;102956.94;5008254;28;20044;-58
2021/12/20 01:36:45;;;;;;;28.30;13.63;;;;;;;17.40;51.03;102948.00;5005971;28;20072;-58
2021/12/20 01:39:12;;;;;;;21.90;13.25;;;;;;;17.39;51.66;102950.78;5007754;28;20344;-58
2021/12/20 01:41:41;;;;;;;25.25;13.30;;;;;;;17.38;51.35;102949.94;5003552;28;20062;-58
2021/12/20 01:44:09;;;;;;;24.88;13.57;;;;;;;17.39;51.49;102966.88;5008643;28;20054;-58
2021/12/20 01:46:35;;;;;;;22.70;12.45;;;;;;;17.37;50.94;102953.56;5004711;28;20050;-58
2021/12/20 01:49:06;;;;;;;21.00;12.18;;;;;;;17.37;51.15;102950.91;5005958;28;20058;-58
2021/12/20 01:54:03;;;;;;;21.38;11.35;;;;;;;17.36;51.32;102953.66;5007059;28;20056;-58
2021/12/20 01:56:33;;;;;;;23.13;13.05;;;;;;;17.35;51.31;102944.75;5003806;28;20153;-58
2021/12/20 01:59:03;;;;;;;24.40;12.45;;;;;;;17.35;51.41;102951.94;5009127;28;20049;-58
2021/12/20 02:01:30;;;;;;;20.25;11.30;;;;;;;17.35;51.52;102949.25;5004794;28;20064;-58
2021/12/20 02:04:00;;;;;;;20.65;11.52;;;;;;;17.34;51.44;102963.63;5005884;28;20046;-58
2021/12/20 02:06:33;;;;;;;22.13;12.00;;;;;;;17.34;51.08;102955.59;5006893;28;20058;-57
2021/12/20 02:09:06;;;;;;;21.10;11.50;;;;;;;17.32;51.34;102954.81;5010992;28;20057;-58
2021/12/20 02:11:33;;;;;;;24.52;12.30;;;;;;;17.33;51.33;102951.19;5008133;28;20050;-58
2021/12/20 02:13:59;;;;;;;18.17;10.18;;;;;;;17.31;51.01;102945.91;5008812;28;20061;-58
2021/12/20 02:16:26;;;;;;;19.70;11.10;;;;;;;17.31;51.14;102955.78;5011848;28;20064;-58
2021/12/20 02:18:53;;;;;;;20.80;10.75;;;;;;;17.31;51.57;102950.41;5009347;28;20050;-58
2021/12/20 02:21:19;;;;;;;20.40;10.27;;;;;;;17.31;51.58;102945.91;5009743;28;20049;-58
2021/12/20 02:23:47;;;;;;;21.92;10.95;;;;;;;17.28;51.57;102949.63;5009427;28;20452;-58
2021/12/20 02:26:16;;;;;;;17.38;9.88;;;;;;;17.28;51.32;102944.28;5010619;28;20061;-58
2021/12/20 02:28:46;;;;;;;17.70;9.23;;;;;;;17.28;50.92;102946.94;5009149;28;20052;-58
2021/12/20 02:39:20;;;;;;;21.25;9.85;;;;;;;17.27;51.31;102944.38;5010412;28;20136;-58
2021/12/20 02:41:46;;;;;;;19.40;9.55;;;;;;;17.26;51.15;102930.13;5006515;28;20054;-59
2021/12/20 02:44:18;;;;;;;17.10;9.25;;;;;;;17.25;51.48;102931.09;5009895;28;20314;-58
2021/12/20 02:47:02;;;;;;;15.93;9.00;;;;;;;17.25;51.79;102932.91;5008030;28;20046;-57
2021/12/20 02:49:30;;;;;;;16.65;9.18;;;;;;;17.25;51.10;102932.91;5008869;28;20053;-58
2021/12/20 02:52:08;;;;;;;16.30;8.40;;;;;;;17.24;51.83;102933.84;5006323;28;20436;-58
2021/12/20 02:54:36;;;;;;;17.17;7.85;;;;;;;17.24;51.11;102931.16;5008988;28;20453;-58
2021/12/20 02:57:03;;;;;;;16.65;8.35;;;;;;;17.23;51.09;102929.47;5007193;28;20052;-58
2021/12/20 02:59:30;;;;;;;16.55;8.70;;;;;;;17.22;51.23;102936.63;5010239;28;20338;-58
2021/12/20 03:02:02;;;;;;;15.60;8.07;;;;;;;17.21;51.63;102932.25;5007743;28;20075;-58
2021/12/20 03:04:29;;;;;;;15.13;7.43;;;;;;;17.21;50.96;102934.94;5011362;28;20133;-57
2021/12/20 03:07:00;;;;;;;17.25;8.35;;;;;;;17.21;51.51;102929.56;5007599;28;20060;-58
2021/12/20 03:09:32;;;;;;;16.25;8.40;;;;;;;17.21;51.48;102932.25;5007480;28;20049;-58
2021/12/20 03:12:01;;;;;;;15.07;6.97;;;;;;;17.21;51.76;102937.59;5008081;28;20045;-57
2021/12/20 03:14:34;;;;;;;16.20;7.82;;;;;;;17.21;51.73;102940.28;5006381;28;20129;-58
2021/12/20 03:17:02;;;;;;;16.80;7.20;;;;;;;17.20;51.22;102935.00;5002329;28;20052;-58
2021/12/20 03:19:29;;;;;;;14.95;7.35;;;;;;;17.19;50.98;102928.78;5010145;28;20084;-58
2021/12/20 03:21:56;;;;;;;13.90;7.10;;;;;;;17.20;50.91;102935.00;5007120;28;20049;-58
2021/12/20 03:24:24;;;;;;;16.45;7.70;;;;;;;17.19;50.91;102931.47;5008934;28;20049;-58
2021/12/20 03:26:51;;;;;;;15.32;6.68;;;;;;;17.19;50.86;102933.28;5006183;28;20049;-58
2021/12/20 03:29:17;;;;;;;13.05;6.93;;;;;;;17.19;50.83;102930.59;5007382;28;20060;-58
2021/12/20 03:31:44;;;;;;;13.82;7.18;;;;;;;17.18;51.03;102929.75;5006354;28;20449;-58
2021/12/20 03:34:11;;;;;;;11.80;6.40;;;;;;;17.18;51.43;102921.72;5005017;28;20043;-58
2021/12/20 03:36:38;;;;;;;15.07;7.00;;;;;;;17.17;50.69;102925.34;5010352;28;20088;-58
2021/12/20 03:39:07;;;;;;;11.75;6.03;;;;;;;17.17;51.40;102928.03;5007795;28;20060;-58
2021/12/20 03:41:34;;;;;;;13.30;5.80;;;;;;;17.17;51.23;102930.72;5006786;28;20701;-58
2021/12/20 03:44:01;;;;;;;14.50;6.88;;;;;;;17.16;51.04;102920.06;5011811;28;20906;-58
2021/12/20 03:46:28;;;;;;;14.32;5.93;;;;;;;17.16;50.91;102928.13;5009033;28;20050;-58
2021/12/20 03:48:55;;;;;;;10.98;5.50;;;;;;;17.15;50.86;102924.56;5006200;28;20053;-58
2021/12/20 03:51:21;;;;;;;12.20;6.00;;;;;;;17.15;51.52;102921.03;5004183;28;20050;-58
2021/12/20 03:53:48;;;;;;;13.68;6.47;;;;;;;17.15;51.04;102923.72;5010063;28;20052;-58
2021/12/20 03:56:14;;;;;;;14.05;5.60;;;;;;;17.14;51.20;102928.22;5003107;28;20058;-58
2021/12/20 03:58:41;;;;;;;13.00;6.40;;;;;;;17.14;51.62;102933.59;5006130;28;20042;-57
2021/12/20 04:01:10;;;;;;;14.43;5.78;;;;;;;17.12;51.56;102924.75;5011226;28;20058;-58
2021/12/20 04:03:37;;;;;;;10.43;5.18;;;;;;;17.13;51.67;102926.50;5005645;28;20046;-57
2021/12/20 04:06:07;;;;;;;14.27;6.40;;;;;;;17.12;51.03;102916.72;5007515;28;20330;-58
2021/12/20 04:08:35;;;;;;;11.65;5.95;;;;;;;17.11;51.30;102912.34;5011062;28;20054;-58
2021/12/20 04:11:02;;;;;;;14.82;5.72;;;;;;;17.12;51.61;102922.09;5009404;28;20412;-58
2021/12/20 04:13:29;;;;;;;9.27;5.03;;;;;;;17.11;51.15;102924.88;5006070;28;20492;-58
2021/12/20 04:15:56;;;;;;;11.48;5.07;;;;;;;17.10;51.12;102924.03;5008753;28;20134;-57
2021/12/20 04:18:24;;;;;;;12.52;5.78;;;;;;;17.10;51.46;102923.16;5007305;28;20060;-58
2021/12/20 04:20:50;;;;;;;14.55;5.50;;;;;;;17.10;51.23;102932.06;5006474;28;20054;-58
2021/12/20 04:23:17;;;;;;;12.27;5.40;;;;;;;17.11;51.05;102930.22;5004500;28;20089;-58
2021/12/20 04:25:44;;;;;;;10.40;4.90;;;;;;;17.11;50.82;102924.88;5008629;28;20422;-58
2021/12/20 04:28:11;;;;;;;10.20;5.32;;;;;;;17.10;51.35;102920.47;5007475;28;20053;-57
2021/12/20 04:30:37;;;;;;;11.95;5.40;;;;;;;17.09;51.36;102929.47;5005758;28;20054;-57
2021/12/20 04:33:04;;;;;;;14.25;5.20;;;;;;;17.09;50.68;102932.16;5008362;28;20056;-58
2021/12/20 04:35:31;;;;;;;10.63;5.10;;;;;;;17.09;51.46;102927.66;5006432;28;20057;-58
2021/12/20 04:37:59;;;;;;;8.65;4.32;;;;;;;17.10;50.86;102923.16;5007097;28;20062;-57
2021/12/20 04:40:26;;;;;;;12.15;4.57;;;;;;;17.09;51.51;102921.44;5008539;28;20488;-58
2021/12/20 04:42:58;;;;;;;11.10;4.80;;;;;;;17.08;51.22;102927.75;5004562;28;20054;-58
2021/12/20 04:45:27;;;;;;;9.05;4.82;;;;;;;17.08;51.65;102928.59;5005144;28;20049;-58
2021/12/20 04:47:54;;;;;;;10.27;4.97;;;;;;;17.08;51.34;102927.75;5006666;28;20046;-57
2021/12/20 04:50:21;;;;;;;10.63;4.45;;;;;;;17.06;50.75;102933.22;5008037;28;20081;-58
2021/12/20 04:52:48;;;;;;;9.75;4.88;;;;;;;17.06;51.55;102935.88;5008713;28;20099;-58
2021/12/20 04:55:16;;;;;;;13.13;4.95;;;;;;;17.07;51.30;102929.56;5001803;28;20456;-57
2021/12/20 04:57:44;;;;;;;11.60;4.57;;;;;;;17.05;51.63;102939.53;5004785;28;20056;-57
2021/12/20 05:00:14;;;;;;;11.60;5.55;;;;;;;17.03;50.82;102928.03;5009517;28;20069;-58
2021/12/20 05:02:42;;;;;;;17.58;4.97;;;;;;;17.04;51.70;102929.75;5003317;28;20160;-57
2021/12/20 05:05:10;;;;;;;21.23;8.27;;;;;;;17.03;51.40;102925.34;5006081;28;20144;-58
2021/12/20 05:07:38;;;;;;;19.70;8.70;;;;;;;17.07;52.02;102940.28;5008737;28;20072;-58
2021/12/20 05:10:14;;;;;;;17.13;7.45;;;;;;;17.11;52.05;102935.59;5006992;28;20097;-58
2021/12/20 05:12:40;;;;;;;18.67;8.75;;;;;;;17.16;51.33;102925.44;5003541;28;20058;-58
2021/12/20 05:15:07;;;;;;;27.08;13.02;;;;;;;17.23;51.24;102926.78;5006181;28;20072;-58
2021/12/20 05:17:36;;;;;;;27.63;13.75;;;;;;;17.30;51.70;102925.44;5002030;28;20845;-58
2021/12/20 05:20:04;;;;;;;32.90;15.60;;;;;;;17.38;51.15;102933.84;5009182;28;20107;-58
2021/12/20 05:22:31;;;;;;;36.17;17.33;;;;;;;17.45;50.87;102937.00;5004407;28;20066;-58
2021/12/20 05:24:57;;;;;;;37.33;18.95;;;;;;;17.53;50.58;102937.38;5005570;28;20129;-58
2021/12/20 05:27:24;;;;;;;40.58;20.20;;;;;;;17.59;50.73;102936.09;4997071;28;20136;-56
2021/12/20 05:29:51;;;;;;;43.85;22.83;;;;;;;17.65;50.70;102928.53;4999055;28;20069;-58
2021/12/20 05:32:17;;;;;;;53.42;27.50;;;;;;;17.71;50.36;102935.28;5007204;28;20624;-57
2021/12/20 05:34:44;;;;;;;47.60;24.05;;;;;;;17.75;50.32;102940.38;5004281;28;20054;-57
2021/12/20 05:37:13;;;;;;;48.13;26.02;;;;;;;17.80;50.35;102936.53;5005839;28;20081;-58
2021/12/20 05:39:40;;;;;;;54.08;27.55;;;;;;;17.83;50.13;102939.03;5005314;28;20050;-57
2021/12/20 05:42:07;;;;;;;52.90;26.75;;;;;;;17.85;50.10;102942.44;5005233;28;20053;-58
2021/12/20 05:44:34;;;;;;;55.60;29.13;;;;;;;17.87;50.18;102945.91;5008701;28;20610;-57
2021/12/20 05:47:01;;;;;;;59.55;28.88;;;;;;;17.88;49.90;102950.31;5010635;28;20049;-58
2021/12/20 05:49:27;;;;;;;56.83;29.15;;;;;;;17.88;49.80;102937.75;5012353;28;20426;-58
2021/12/20 05:51:54;;;;;;;58.85;29.52;;;;;;;17.88;50.29;102940.44;5009763;28;20055;-58
2021/12/20 05:54:20;;;;;;;56.70;30.20;;;;;;;17.87;49.88;102944.09;5011738;28;20393;-58
2021/12/20 05:56:47;;;;;;;55.17;29.85;;;;;;;17.86;49.80;102949.56;5007571;28;20528;-58
2021/12/20 05:59:13;;;;;;;60.60;30.88;;;;;;;17.85;49.99;102947.81;5007372;28;20053;-58
2021/12/20 06:01:40;;;;;;;60.72;32.05;;;;;;;17.84;50.19;102952.34;5011008;28;20057;-58
2021/12/20 06:04:07;;;;;;;63.63;32.33;;;;;;;17.82;49.71;102953.41;5009320;28;20081;-58
2021/12/20 06:06:33;;;;;;;62.28;32.65;;;;;;;17.82;49.96;102945.38;5008512;28;20049;-58
2021/12/20 06:09:00;;;;;;;59.17;31.88;;;;;;;17.80;50.07;102945.44;5011173;28;20068;-58
2021/12/20 06:11:27;;;;;;;60.35;33.83;;;;;;;17.79;49.92;102953.59;5009168;28;20120;-59
2021/12/20 06:13:54;;;;;;;62.75;33.25;;;;;;;17.78;49.67;102949.22;5009379;28;20057;-59
2021/12/20 06:16:21;;;;;;;64.75;34.08;;;;;;;17.77;49.94;102959.09;5007894;28;20057;-59
2021/12/20 06:18:47;;;;;;;64.57;35.33;;;;;;;17.75;50.06;102952.94;5007210;28;20426;-58
2021/12/20 06:21:14;;;;;;;64.20;34.88;;;;;;;17.74;49.75;102962.81;5009719;28;20050;-59
2021/12/20 06:23:40;;;;;;;64.60;34.58;;;;;;;17.72;49.72;102953.09;5009890;28;20079;-58
2021/12/20 06:26:07;;;;;;;66.32;34.33;;;;;;;17.72;49.90;102945.06;5009466;28;20053;-58
2021/12/20 06:28:33;;;;;;;64.45;34.80;;;;;;;17.69;50.21;102954.19;5006378;28;20058;-58
2021/12/20 06:31:00;;;;;;;65.97;34.25;;;;;;;17.68;49.96;102957.81;5007387;28;20062;-58
2021/12/20 06:33:27;;;;;;;62.30;33.78;;;;;;;17.68;50.14;102962.31;5009688;28;20388;-58
2021/12/20 06:35:54;;;;;;;62.72;33.45;;;;;;;17.66;50.05;102951.69;5006981;28;20050;-58
2021/12/20 06:38:22;;;;;;;63.78;33.97;;;;;;;17.65;49.97;102946.44;5007973;28;20064;-58
2021/12/20 06:40:50;;;;;;;62.78;32.35;;;;;;;17.63;49.93;102951.88;5008530;28;20061;-58
2021/12/20 06:43:18;;;;;;;64.28;33.72;;;;;;;17.62;49.93;102949.31;5009151;28;20056;-58
2021/12/20 06:45:45;;;;;;;60.67;32.08;;;;;;;17.59;50.13;102947.69;5007142;28;20701;-58
2021/12/20 06:48:12;;;;;;;64.25;32.55;;;;;;;17.58;49.94;102963.88;5009537;28;20056;-58
2021/12/20 06:50:38;;;;;;;56.90;30.90;;;;;;;17.56;50.12;102955.91;5008210;28;20052;-58
2021/12/20 06:53:08;;;;;;;58.33;30.90;;;;;;;17.54;50.13;102954.31;5009579;28;20056;-58
2021/12/20 06:55:35;;;;;;;59.90;31.27;;;;;;;17.53;50.21;102956.13;5007329;28;20072;-58
2021/12/20 06:58:03;;;;;;;59.90;31.67;;;;;;;17.50;49.91;102954.50;5011022;28;20046;-57
2021/12/20 07:00:30;;;;;;;56.30;30.15;;;;;;;17.49;50.01;102959.97;5010477;28;20081;-58
2021/12/20 07:02:57;;;;;;;59.88;31.08;;;;;;;17.48;50.23;102966.28;5005780;28;20045;-58
2021/12/20 07:05:24;;;;;;;60.45;31.70;;;;;;;17.46;50.25;102963.69;5005666;28;20105;-57
2021/12/20 07:07:50;;;;;;;59.53;30.30;;;;;;;17.46;50.37;102965.53;5008473;28;20083;-58
2021/12/20 07:10:17;;;;;;;51.65;29.10;;;;;;;17.43;50.16;102973.75;5006924;28;20144;-58
2021/12/20 07:12:44;;;;;;;58.97;29.73;;;;;;;17.42;49.96;102966.69;5006484;28;20054;-58
2021/12/20 07:15:13;;;;;;;55.30;28.88;;;;;;;17.41;50.37;102970.31;5008462;28;20049;-58
2021/12/20 07:17:41;;;;;;;56.38;31.13;;;;;;;17.39;50.04;102975.75;5007136;28;20046;-57
2021/12/20 07:20:09;;;;;;;54.50;28.05;;;;;;;17.37;50.29;102975.03;5009274;28;20041;-58
2021/12/20 07:22:35;;;;;;;52.83;28.15;;;;;;;17.37;50.55;102966.13;5009205;28;20050;-58
2021/12/20 07:25:02;;;;;;;49.42;26.00;;;;;;;17.34;50.32;102969.00;5009240;28;20046;-58
2021/12/20 07:27:30;;;;;;;47.20;25.58;;;;;;;17.34;49.89;102974.34;5008144;28;20048;-58
2021/12/20 07:29:58;;;;;;;51.47;27.75;;;;;;;17.32;50.01;102976.25;5010471;28;20149;-58
2021/12/20 07:32:25;;;;;;;48.58;26.25;;;;;;;17.28;50.02;102976.44;5009264;28;20072;-58
2021/12/20 07:34:51;;;;;;;47.13;25.42;;;;;;;17.27;50.60;102972.03;5007567;28;20045;-58
2021/12/20 07:37:18;;;;;;;51.25;26.17;;;;;;;17.25;49.86;102984.69;5005122;28;20072;-58
2021/12/20 07:39:44;;;;;;;45.70;24.63;;;;;;;17.25;50.08;102981.16;5010714;28;20566;-58
2021/12/20 07:42:11;;;;;;;43.35;23.38;;;;;;;17.25;50.16;102978.47;5005753;28;20391;-58
2021/12/20 07:44:38;;;;;;;45.38;23.42;;;;;;;17.23;50.38;102980.38;5007403;28;20041;-58
2021/12/20 07:47:05;;;;;;;42.58;23.42;;;;;;;17.22;50.22;102982.19;5010199;28;20137;-58
2021/12/20 07:49:33;;;;;;;45.78;23.98;;;;;;;17.21;49.83;102980.47;5008098;28;20053;-58
2021/12/20 07:52:01;;;;;;;43.80;22.98;;;;;;;17.19;50.55;102976.16;5006994;28;20046;-58
2021/12/20 07:54:27;;;;;;;44.85;22.50;;;;;;;17.19;50.01;102987.75;5008198;28;20147;-58
2021/12/20 07:56:56;;;;;;;41.65;22.35;;;;;;;17.18;50.25;102982.50;5008018;28;20057;-58
2021/12/20 07:59:23;;;;;;;40.15;22.02;;;;;;;17.17;50.12;102984.31;5006751;28;20124;-58
2021/12/20 08:01:50;;;;;;;37.00;20.55;;;;;;;17.15;50.50;102980.84;5010835;28;20133;-58
2021/12/20 08:04:17;;;;;;;41.22;21.30;;;;;;;17.16;50.44;102984.38;5008017;28;20145;-58
2021/12/20 08:06:44;;;;;;;38.08;19.90;;;;;;;17.14;50.41;102983.63;5005558;28;20073;-58
2021/12/20 08:09:11;;;;;;;39.50;20.38;;;;;;;17.13;50.28;102988.16;5007414;28;20129;-58
2021/12/20 08:11:38;;;;;;;38.83;20.33;;;;;;;17.11;50.49;102983.81;5006831;28;20082;-58
2021/12/20 08:14:05;;;;;;;40.42;21.65;;;;;;;17.10;50.81;102987.47;5007216;28;20070;-58
2021/12/20 08:16:32;;;;;;;37.38;21.27;;;;;;;17.10;50.79;102991.00;5008004;28;20069;-58
2021/12/20 08:18:58;;;;;;;35.78;19.35;;;;;;;17.10;50.24;102984.78;5004590;28;20150;-58
2021/12/20 08:21:25;;;;;;;33.08;18.08;;;;;;;17.09;50.71;102994.66;5006928;28;20088;-57
2021/12/20 08:23:52;;;;;;;35.83;19.08;;;;;;;17.08;50.88;103002.75;5008728;28;20124;-58
2021/12/20 08:26:18;;;;;;;35.25;18.50;;;;;;;17.08;50.02;103000.09;5008286;28;20438;-57
2021/12/20 08:28:45;;;;;;;34.50;17.65;;;;;;;17.05;50.16;102998.47;5005880;28;20500;-58
2021/12/20 08:31:11;;;;;;;33.70;16.95;;;;;;;17.06;50.65;103000.19;5006419;28;20050;-57
2021/12/20 08:33:38;;;;;;;31.27;16.67;;;;;;;17.05;50.14;103002.97;5007674;28;20168;-57
2021/12/20 08:36:12;;;;;;;30.30;16.33;;;;;;;17.04;49.99;102999.41;5006669;28;20054;-58
2021/12/20 08:38:39;;;;;;;28.63;16.33;;;;;;;17.05;50.14;102997.63;5007171;28;20397;-58
2021/12/20 08:41:07;;;;;;;27.73;15.63;;;;;;;17.04;50.33;103004.75;5005292;28;20132;-57
2021/12/20 08:43:33;;;;;;;30.63;16.00;;;;;;;17.04;50.29;103004.75;5004466;28;20137;-58
2021/12/20 08:46:02;;;;;;;29.33;15.25;;;;;;;17.03;50.58;103006.59;5004405;28;20050;-58
2021/12/20 08:48:30;;;;;;;26.05;14.80;;;;;;;17.03;50.20;103005.72;5006206;28;20105;-58
2021/12/20 08:50:59;;;;;;;28.05;15.20;;;;;;;17.02;50.80;103004.00;5007182;28;20191;-58
2021/12/20 08:53:25;;;;;;;30.65;15.25;;;;;;;17.02;49.98;103002.19;5007081;28;20077;-58
2021/12/20 08:55:52;;;;;;;32.17;15.77;;;;;;;17.03;50.29;103005.72;5009696;28;20133;-58
2021/12/20 08:58:24;;;;;;;31.15;15.85;;;;;;;17.01;50.65;102999.63;5005696;28;20050;-58
2021/12/20 09:00:51;;;;;;;27.20;15.13;;;;;;;17.03;50.59;103000.38;5007225;28;20050;-58
2021/12/20 09:03:18;;;;;;;26.63;13.48;;;;;;;17.02;50.53;103006.69;5006398;28;20362;-58
2021/12/20 09:05:46;;;;;;;24.65;13.85;;;;;;;17.02;50.37;103006.69;5008354;28;20054;-58
2021/12/20 09:08:15;;;;;;;23.23;12.50;;;;;;;17.01;50.08;103010.34;5007665;28;20153;-58
2021/12/20 09:10:41;;;;;;;22.88;12.43;;;;;;;17.02;50.63;103012.06;5009847;28;20092;-58
2021/12/20 09:13:08;;;;;;;30.13;13.70;;;;;;;17.02;50.16;103014.72;5004939;28;20391;-58
2021/12/20 09:15:36;;;;;;;24.05;12.85;;;;;;;17.01;50.34;103008.50;5006729;28;20413;-58
2021/12/20 09:18:04;;;;;;;20.75;11.45;;;;;;;17.01;50.06;103013.88;5007375;28;20128;-58
2021/12/20 09:20:32;;;;;;;21.52;12.07;;;;;;;17.01;50.06;103011.19;5006323;28;20506;-58
2021/12/20 09:23:06;;;;;;;23.98;12.38;;;;;;;17.01;50.41;103018.38;5007773;28;20129;-58
2021/12/20 09:25:37;;;;;;;25.60;12.32;;;;;;;17.00;50.49;103014.84;5007003;28;20092;-58
2021/12/20 09:28:08;;;;;;;22.52;11.88;;;;;;;17.01;50.27;103026.41;5005281;28;20061;-58
2021/12/20 09:30:37;;;;;;;18.83;10.10;;;;;;;17.00;50.74;103028.22;5003332;28;20145;-58
2021/12/20 09:33:04;;;;;;;20.73;10.75;;;;;;;17.01;50.10;103023.72;5003108;28;20158;-58
2021/12/20 09:35:32;;;;;;;20.08;11.00;;;;;;;17.00;50.29;103024.66;5006177;28;20073;-58
2021/12/20 09:37:58;;;;;;;19.80;10.50;;;;;;;17.00;50.76;103030.03;5008657;28;20053;-58
2021/12/20 09:40:36;;;;;;;17.30;9.20;;;;;;;16.99;50.42;103023.81;5007452;28;20422;-58
2021/12/20 09:43:13;;;;;;;17.35;9.73;;;;;;;16.98;50.43;103026.59;5004802;28;20100;-58
2021/12/20 09:45:45;;;;;;;17.90;9.35;;;;;;;16.98;49.85;103026.59;5009355;28;20073;-58
2021/12/20 09:48:12;;;;;;;19.77;10.35;;;;;;;16.97;50.52;103030.22;5004765;28;20610;-58
2021/12/20 09:50:39;;;;;;;17.33;8.93;;;;;;;16.96;50.77;103032.03;5006083;28;20053;-58
2021/12/20 09:53:07;;;;;;;19.13;10.07;;;;;;;16.98;50.86;103034.63;5009775;28;20108;-58
2021/12/20 09:55:35;;;;;;;20.45;8.57;;;;;;;16.98;50.61;103031.94;5007110;28;20160;-58
2021/12/20 09:58:04;;;;;;;18.25;8.75;;;;;;;16.97;50.70;103035.59;5002980;28;20077;-58
2021/12/20 10:00:31;;;;;;;16.15;8.52;;;;;;;16.97;50.75;103035.59;5004753;28;20057;-58
2021/12/20 10:02:58;;;;;;;18.15;8.88;;;;;;;16.97;50.67;103035.59;5006623;28;20073;-58
2021/12/20 10:05:25;;;;;;;18.35;9.05;;;;;;;16.95;50.68;103032.97;5006497;28;20078;-58
2021/12/20 10:07:53;;;;;;;17.50;8.40;;;;;;;16.95;50.41;103032.13;5004734;28;20263;-58
2021/12/20 10:10:50;;;;;;;16.00;7.60;;;;;;;16.93;50.44;103034.91;5009909;28;20050;-58
2021/12/20 10:13:20;;;;;;;15.43;7.82;;;;;;;16.95;50.56;103042.84;5006189;28;20088;-58
2021/12/20 10:15:47;;;;;;;15.77;7.32;;;;;;;16.95;49.98;103041.03;5004605;28;20496;-58
2021/12/20 10:18:15;;;;;;;16.35;8.07;;;;;;;16.94;50.46;103043.81;4999855;28;20553;-58
2021/12/20 10:20:47;;;;;;;13.13;7.40;;;;;;;16.94;50.94;103043.81;5007711;28;20050;-58
2021/12/20 10:23:20;;;;;;;13.55;7.22;;;;;;;16.93;50.85;103045.63;5004552;28;20078;-58
2021/12/20 10:25:52;;;;;;;16.10;7.18;;;;;;;16.92;50.61;103043.00;5005870;28;20449;-58
2021/12/20 10:28:31;;;;;;;13.60;6.70;;;;;;;16.92;50.55;103048.38;5007431;28;20045;-58
2021/12/20 10:31:01;;;;;;;13.57;7.23;;;;;;;16.92;50.82;103049.22;5011341;28;20164;-58
2021/12/20 10:33:28;;;;;;;14.02;7.93;;;;;;;16.92;50.83;103049.22;5010231;28;20160;-58
2021/12/20 10:36:02;;;;;;;12.13;6.25;;;;;;;16.92;50.07;103043.00;5010503;28;20137;-58
2021/12/20 10:38:38;;;;;;;13.55;7.25;;;;;;;16.91;50.43;103049.34;5008850;28;20050;-58
2021/12/20 10:41:11;;;;;;;14.45;7.30;;;;;;;16.89;49.85;103044.09;5009125;28;20049;-58
2021/12/20 10:44:02;;;;;;;11.57;5.60;;;;;;;16.89;50.87;103044.09;5008372;28;20050;-58
2021/12/20 10:46:33;;;;;;;;;;;;;;;16.91;50.09;103041.31;5009493;28;20076;-59
2021/12/20 10:49:04;;;;;;;12.70;6.57;;;;;;;16.92;50.45;103043.88;5011289;28;20011;-58
2021/12/20 10:51:38;;;;;;;11.57;5.38;;;;;;;16.91;50.74;103047.50;5009966;28;20081;-58
2021/12/20 10:54:10;;;;;;;12.45;5.88;;;;;;;16.91;50.38;103049.34;5008564;28;20129;-58
2021/12/20 10:56:57;;;;;;;10.60;5.60;;;;;;;16.90;50.51;103050.31;5006837;28;20448;-57
2021/12/20 10:59:30;;;;;;;13.43;6.10;;;;;;;16.90;50.77;103050.31;5002635;28;20137;-57
2021/12/20 11:04:57;;;;;;;13.52;6.18;;;;;;;16.91;50.64;103039.47;5006285;28;20054;-57
2021/12/20 11:09:55;;;;;;;15.40;7.80;;;;;;;16.91;50.00;103044.84;5002791;28;20077;-57
2021/12/20 11:12:24;;;;;;;13.25;6.72;;;;;;;16.92;50.54;103037.66;5000993;28;20133;-57
2021/12/20 11:14:56;;;;;;;14.07;7.32;;;;;;;16.92;50.59;103035.84;5004522;28;20049;-58
2021/12/20 11:17:23;;;;;;;12.18;6.82;;;;;;;16.92;50.42;103026.94;5002000;28;20085;-58
2021/12/20 11:19:55;;;;;;;15.48;7.40;;;;;;;16.94;50.51;103036.63;5001580;28;20101;-57
2021/12/20 11:22:30;;;;;;;18.95;9.48;;;;;;;16.95;50.07;103032.13;5001300;28;20455;-57
2021/12/20 11:25:03;;;;;;;15.43;8.40;;;;;;;16.94;49.89;103025.91;5005703;28;20069;-57
2021/12/20 11:27:38;;;;;;;16.05;8.57;;;;;;;16.95;50.11;103038.34;4997384;28;20405;-58
2021/12/20 11:30:11;;;;;;;16.42;8.90;;;;;;;16.99;49.83;103034.50;5004625;28;20141;-56
2021/12/20 11:32:39;;;;;;;21.60;9.98;;;;;;;17.05;49.89;103030.63;5005935;28;20082;-57
2021/12/20 11:35:12;;;;;;;22.40;11.80;;;;;;;17.13;50.14;103028.34;4996104;28;20559;-57
2021/12/20 11:37:38;;;;;;;21.60;11.07;;;;;;;17.21;49.91;103031.41;5005974;28;20042;-58